Time;durP1;ratioP1;P1;durP2;ratioP2;P2;SDS_P1;SDS_P2;PMS_P1;PMS_P2;Temp;Humidity;BMP_temperature;BMP_pressure;BME280_temperature;BME280_humidity;BME280_pressure;Samples;Min_cycle;Max_cycle;Signal;HPM_P1;HPM_P2
2022/04/19 00:00:55;;;;;;;2.20;1.47;;;;;;;10.77;40.06;101125.28;1705211;84;21086;-66
2022/04/19 00:03:22;;;;;;;1.92;1.70;;;;;;;10.77;40.16;101129.18;1705401;84;21057;-65
2022/04/19 00:05:49;;;;;;;2.02;1.72;;;;;;;10.76;39.95;101122.23;1705441;84;21021;-65
2022/04/19 00:08:17;;;;;;;1.62;1.52;;;;;;;10.75;40.25;101119.23;1708539;83;21096;-65
2022/04/19 00:10:44;;;;;;;1.57;1.40;;;;;;;10.75;39.59;101122.27;1713430;83;21081;-66
2022/04/19 00:13:16;;;;;;;2.12;1.45;;;;;;;10.75;39.56;101117.07;1714317;83;21010;-65
2022/04/19 00:15:43;;;;;;;1.80;1.52;;;;;;;10.73;40.08;101116.23;1715021;83;21016;-65
2022/04/19 00:18:12;;;;;;;1.80;1.70;;;;;;;10.73;40.11;101121.01;1710992;83;21125;-66
2022/04/19 00:20:39;;;;;;;2.42;1.65;;;;;;;10.74;40.03;101124.01;1713863;83;21064;-66
2022/04/19 00:23:13;;;;;;;2.12;1.92;;;;;;;10.72;39.94;101124.48;1713179;83;21093;-65
2022/04/19 00:25:42;;;;;;;1.50;1.35;;;;;;;10.73;39.67;101130.55;1688400;85;21026;-66
2022/04/19 00:28:12;;;;;;;1.90;1.72;;;;;;;10.71;40.00;101126.68;1693405;84;21037;-65
2022/04/19 00:30:40;;;;;;;2.87;1.82;;;;;;;10.70;39.60;101124.95;1664433;86;21138;-65
2022/04/19 00:33:09;;;;;;;3.15;1.57;;;;;;;10.69;39.84;101141.89;1684781;84;21545;-66
2022/04/19 00:35:37;;;;;;;1.65;1.55;;;;;;;10.68;39.87;101129.31;1663302;86;21039;-65
2022/04/19 00:38:05;;;;;;;2.02;1.60;;;;;;;10.70;39.52;101131.45;1663099;86;21103;-66
2022/04/19 00:40:34;;;;;;;2.20;1.70;;;;;;;10.68;39.51;101129.31;1662178;86;21617;-66
2022/04/19 00:43:02;;;;;;;2.67;1.70;;;;;;;10.67;39.23;101130.22;1661828;86;21041;-65
2022/04/19 00:45:34;;;;;;;2.10;1.80;;;;;;;10.65;39.68;101124.18;1661623;86;21557;-66
2022/04/19 00:47:59;;;;;;;1.85;1.55;;;;;;;10.62;39.29;101121.17;1658560;86;21074;-66
2022/04/19 00:50:26;;;;;;;3.15;1.80;;;;;;;10.61;39.82;101119.91;1661925;86;21562;-66
2022/04/19 00:52:55;;;;;;;2.12;1.90;;;;;;;10.59;40.02;101124.28;1663578;86;21062;-66
2022/04/19 00:55:24;;;;;;;2.35;1.60;;;;;;;10.56;38.81;101114.77;1664557;86;21026;-66
2022/04/19 00:57:53;;;;;;;1.57;1.45;;;;;;;10.53;39.71;101112.67;1664745;86;21579;-65
2022/04/19 01:00:22;;;;;;;2.05;1.77;;;;;;;10.52;39.71;101108.33;1663186;86;21002;-66
2022/04/19 01:02:55;;;;;;;2.02;1.80;;;;;;;10.50;39.89;101114.00;1681110;84;21041;-66
2022/04/19 01:05:23;;;;;;;2.47;1.75;;;;;;;10.49;39.83;101114.87;1663476;86;21087;-66
2022/04/19 01:07:50;;;;;;;2.17;1.98;;;;;;;10.46;39.47;101102.80;1668905;84;21068;-65
2022/04/19 01:10:19;;;;;;;1.77;1.67;;;;;;;10.43;39.39;101096.33;1677346;84;21074;-66
2022/04/19 01:15:32;;;;;;;2.40;2.02;;;;;;;10.39;39.99;101104.19;1660914;84;21054;-66
2022/04/19 01:18:02;;;;;;;2.75;2.52;;;;;;;10.38;40.06;101112.89;1679626;84;21069;-66
2022/04/19 01:20:29;;;;;;;2.30;2.10;;;;;;;10.38;40.74;101108.99;1657382;84;21122;-66
2022/04/19 01:23:00;;;;;;;2.20;2.00;;;;;;;10.35;41.09;101110.33;1675713;84;21078;-66
2022/04/19 01:25:29;;;;;;;2.35;1.98;;;;;;;10.33;41.32;101109.48;1659815;85;21574;-66
2022/04/19 01:27:57;;;;;;;2.08;1.98;;;;;;;10.30;41.26;101116.92;1676646;85;21078;-67
2022/04/19 01:30:25;;;;;;;2.50;2.10;;;;;;;10.28;41.40;101123.02;1678768;84;21088;-66
2022/04/19 01:32:53;;;;;;;2.22;1.90;;;;;;;10.27;40.59;101116.09;1693510;84;21096;-67
2022/04/19 01:35:21;;;;;;;2.15;1.95;;;;;;;10.26;41.20;101120.89;1694537;84;21532;-66
2022/04/19 01:37:51;;;;;;;1.80;1.57;;;;;;;10.26;41.45;101120.89;1693630;84;21460;-66
2022/04/19 01:40:21;;;;;;;1.90;1.80;;;;;;;10.24;41.19;101123.95;1690031;84;21031;-66
2022/04/19 01:42:57;;;;;;;2.62;2.17;;;;;;;10.23;40.78;101123.08;1697614;84;21048;-66
2022/04/19 01:45:30;;;;;;;2.25;2.00;;;;;;;10.22;41.28;101125.25;1697530;84;21071;-67
2022/04/19 01:48:00;;;;;;;2.40;2.10;;;;;;;10.21;41.70;101123.98;1712569;83;21469;-67
2022/04/19 01:50:29;;;;;;;3.37;2.20;;;;;;;10.21;41.60;101118.78;1698020;84;21517;-66
2022/04/19 01:52:59;;;;;;;3.25;2.22;;;;;;;10.21;41.57;101113.58;1698043;84;21091;-66
2022/04/19 01:55:28;;;;;;;;;;;;;;;10.18;41.94;101113.64;1714892;83;21042;-66
2022/04/19 01:57:58;;;;;;;3.12;1.70;;;;;;;10.17;42.38;101122.30;1711288;83;20105;-67
2022/04/19 02:00:30;;;;;;;2.30;2.05;;;;;;;10.14;42.54;101115.40;1708924;83;21018;-66
2022/04/19 02:02:57;;;;;;;5.37;2.60;;;;;;;10.12;42.70;101117.63;1616635;88;21591;-66
2022/04/19 02:05:26;;;;;;;2.50;2.30;;;;;;;10.12;42.47;101116.33;1616074;89;21118;-66
2022/04/19 02:07:53;;;;;;;2.37;2.17;;;;;;;10.13;42.31;101114.13;1628828;88;21085;-66
2022/04/19 02:10:21;;;;;;;2.87;2.15;;;;;;;10.11;42.28;101123.69;1608231;89;21133;-66
2022/04/19 02:12:52;;;;;;;4.62;2.30;;;;;;;10.07;42.42;101118.95;1656682;86;21026;-66
2022/04/19 02:15:37;;;;;;;3.02;2.40;;;;;;;10.04;42.45;101120.72;1567166;91;21059;-66
2022/04/19 02:18:11;;;;;;;2.42;2.22;;;;;;;9.99;42.60;101115.60;1528484;93;21241;-66
2022/04/19 02:20:38;;;;;;;2.47;2.12;;;;;;;9.95;42.79;101122.16;1528624;93;21091;-66
2022/04/19 02:23:05;;;;;;;2.92;2.60;;;;;;;9.91;42.94;101117.45;1528741;93;21103;-66
2022/04/19 02:25:33;;;;;;;2.60;2.22;;;;;;;9.87;43.11;101116.20;1523774;93;21116;-66
2022/04/19 02:28:06;;;;;;;2.55;2.27;;;;;;;9.81;43.36;101116.69;1529546;93;21144;-66
2022/04/19 02:30:33;;;;;;;2.55;2.35;;;;;;;9.77;43.51;101107.21;1529603;93;21124;-66
2022/04/19 02:33:02;;;;;;;2.65;2.42;;;;;;;9.73;43.67;101104.23;1527611;93;21130;-65
2022/04/19 02:35:31;;;;;;;3.33;2.58;;;;;;;9.69;43.93;101104.28;1535064;92;21080;-65
2022/04/19 02:38:00;;;;;;;2.95;2.58;;;;;;;9.63;44.13;101101.33;1535163;92;21113;-65
2022/04/19 02:40:29;;;;;;;2.58;2.22;;;;;;;9.58;44.37;101108.31;1513682;92;21137;-66
2022/04/19 02:42:59;;;;;;;3.67;2.60;;;;;;;9.53;44.68;101110.55;1524717;94;21070;-65
2022/04/19 02:45:27;;;;;;;3.35;3.05;;;;;;;9.48;45.00;101113.20;1524762;94;21131;-65
2022/04/19 02:48:06;;;;;;;2.85;2.45;;;;;;;9.47;45.30;101116.69;1525375;94;21129;-65
2022/04/19 02:50:43;;;;;;;3.60;2.45;;;;;;;9.48;45.55;101118.86;1595277;88;21085;-66
2022/04/19 02:53:12;;;;;;;3.00;2.70;;;;;;;9.49;45.74;101116.23;1632497;87;21177;-65
2022/04/19 02:55:40;;;;;;;3.65;3.17;;;;;;;9.48;46.04;101119.69;1681218;82;21091;-66
2022/04/19 02:58:07;;;;;;;2.90;2.70;;;;;;;9.47;46.19;101121.88;1705467;84;21032;-65
2022/04/19 03:00:37;;;;;;;3.40;2.60;;;;;;;9.50;46.11;101130.92;1705166;83;21019;-65
2022/04/19 03:03:05;;;;;;;3.50;2.87;;;;;;;9.52;46.07;101142.16;1705395;84;21058;-65
2022/04/19 03:05:37;;;;;;;4.30;2.75;;;;;;;9.53;45.81;101143.89;1679704;84;21542;-66
2022/04/19 03:08:03;;;;;;;2.90;2.65;;;;;;;9.54;45.75;101143.00;1701260;84;21052;-65
2022/04/19 03:10:32;;;;;;;3.17;2.77;;;;;;;9.53;45.70;101141.73;1705001;83;21517;-65
2022/04/19 03:13:00;;;;;;;2.85;2.58;;;;;;;9.53;45.70;101150.39;1705157;84;21051;-66
2022/04/19 03:15:34;;;;;;;3.22;2.92;;;;;;;9.52;45.76;101154.31;1705272;84;21031;-66
2022/04/19 03:17:58;;;;;;;2.90;2.45;;;;;;;9.52;45.90;101159.50;1700571;84;21026;-65
2022/04/19 03:20:28;;;;;;;3.17;2.80;;;;;;;9.47;46.07;101164.74;1705103;84;21513;-65
2022/04/19 03:28:31;;;;;;;3.00;2.72;;;;;;;9.46;46.24;101173.39;1705014;84;21078;-65
2022/04/19 03:30:58;;;;;;;3.27;2.75;;;;;;;9.46;46.27;101175.99;1705248;84;21037;-65
2022/04/19 03:33:26;;;;;;;2.98;2.67;;;;;;;9.45;46.31;101182.08;1705554;84;21034;-65
2022/04/19 03:35:56;;;;;;;2.98;2.60;;;;;;;9.45;46.33;101183.81;1705317;83;21051;-65
2022/04/19 03:38:22;;;;;;;2.45;2.25;;;;;;;9.45;46.36;101188.58;1705456;84;21022;-65
2022/04/19 03:40:49;;;;;;;2.60;2.40;;;;;;;9.44;46.32;101186.84;1705314;84;21010;-65
2022/04/19 03:43:17;;;;;;;3.25;3.00;;;;;;;9.45;46.44;101184.67;1705263;84;21039;-65
2022/04/19 03:45:47;;;;;;;3.05;2.80;;;;;;;9.46;46.65;101188.98;1705354;83;20998;-66
2022/04/19 03:48:14;;;;;;;3.50;3.20;;;;;;;9.46;46.84;101187.68;1705304;84;21006;-65
2022/04/19 03:50:42;;;;;;;3.22;2.92;;;;;;;9.45;46.73;101184.67;1705293;83;21023;-65
2022/04/19 03:53:09;;;;;;;3.65;2.90;;;;;;;9.45;46.82;101184.67;1705195;84;21054;-65
2022/04/19 03:55:37;;;;;;;3.70;2.95;;;;;;;9.45;47.04;101184.67;1705456;83;21497;-66
2022/04/19 03:58:05;;;;;;;3.27;2.98;;;;;;;9.45;47.27;101187.28;1705056;83;21520;-66
2022/04/19 04:00:34;;;;;;;4.35;2.77;;;;;;;9.49;47.66;101186.80;1705230;83;21511;-66
2022/04/19 04:03:02;;;;;;;2.90;2.62;;;;;;;9.50;47.78;101188.07;1705240;83;21072;-65
2022/04/19 04:05:31;;;;;;;3.75;3.17;;;;;;;9.52;47.37;101187.62;1705161;84;21075;-65
2022/04/19 04:07:58;;;;;;;3.22;2.90;;;;;;;9.54;47.38;101192.36;1705019;84;21039;-66
2022/04/19 04:10:28;;;;;;;3.37;2.90;;;;;;;9.55;46.89;101191.50;1705035;84;21074;-66
2022/04/19 04:12:58;;;;;;;3.08;2.60;;;;;;;9.57;46.67;101191.47;1705222;84;21072;-66
2022/04/19 04:15:25;;;;;;;4.47;3.08;;;;;;;9.60;46.85;101188.39;1705322;84;21053;-66
2022/04/19 04:17:52;;;;;;;4.58;3.55;;;;;;;9.64;46.67;101186.18;1705132;84;21071;-66
2022/04/19 04:20:22;;;;;;;4.80;3.30;;;;;;;9.66;46.95;101184.45;1705002;84;21039;-66
2022/04/19 04:22:48;;;;;;;4.75;3.37;;;;;;;9.69;47.17;101181.81;1705330;83;21059;-66
2022/04/19 04:25:17;;;;;;;4.12;3.27;;;;;;;9.71;47.03;101178.75;1699205;84;21003;-66
2022/04/19 04:27:44;;;;;;;4.17;3.27;;;;;;;9.73;47.20;101176.99;1705408;84;21526;-67
2022/04/19 04:30:12;;;;;;;3.42;3.12;;;;;;;9.78;47.15;101178.25;1703748;84;21534;-65
2022/04/19 04:32:42;;;;;;;3.47;3.10;;;;;;;9.81;47.02;101176.46;1702948;84;21046;-66
2022/04/19 04:35:09;;;;;;;3.67;3.17;;;;;;;9.87;46.77;101177.28;1705255;83;21019;-65
2022/04/19 04:37:38;;;;;;;4.28;3.75;;;;;;;9.88;47.02;101169.45;1705039;82;21069;-66
2022/04/19 04:40:09;;;;;;;3.80;3.20;;;;;;;9.89;46.97;101163.39;1699267;84;21065;-65
2022/04/19 04:42:37;;;;;;;4.47;3.25;;;;;;;9.91;46.70;101160.77;1705435;84;21015;-65
2022/04/19 04:45:10;;;;;;;4.10;3.37;;;;;;;9.91;46.10;101160.77;1613433;88;21065;-65
2022/04/19 04:50:23;;;;;;;4.70;3.08;;;;;;;9.94;46.21;101162.02;1604700;89;21061;-66
2022/04/19 04:52:53;;;;;;;3.30;3.00;;;;;;;9.93;45.46;101172.01;1602681;89;21078;-66
2022/04/19 04:55:20;;;;;;;3.90;3.37;;;;;;;9.93;45.40;101173.30;1613528;89;21034;-66
2022/04/19 04:57:50;;;;;;;3.72;3.33;;;;;;;9.94;44.92;101177.61;1613187;87;21109;-66
2022/04/19 05:00:17;;;;;;;3.50;2.95;;;;;;;9.93;45.09;101172.01;1608277;89;21105;-66
2022/04/19 05:02:51;;;;;;;5.65;3.47;;;;;;;9.94;44.94;101184.11;1613513;87;21046;-66
2022/04/19 05:05:21;;;;;;;3.58;2.92;;;;;;;9.94;45.21;101184.98;1613532;89;21614;-66
2022/04/19 05:07:48;;;;;;;4.45;3.02;;;;;;;9.97;45.26;101186.69;1613559;89;21065;-67
2022/04/19 05:10:16;;;;;;;3.35;2.85;;;;;;;10.01;45.30;101181.87;1611803;89;21172;-66
2022/04/19 05:12:43;;;;;;;3.55;3.17;;;;;;;10.05;45.06;101183.55;1611096;89;21112;-66
2022/04/19 05:15:11;;;;;;;3.33;3.02;;;;;;;10.10;44.98;101180.46;1600787;89;21121;-65
2022/04/19 05:17:39;;;;;;;4.03;3.17;;;;;;;10.15;44.58;101166.98;1610532;89;21099;-66
2022/04/19 05:20:09;;;;;;;4.45;3.27;;;;;;;10.21;44.22;101166.89;1610803;89;21114;-66
2022/04/19 05:22:38;;;;;;;5.40;2.90;;;;;;;10.25;44.06;101161.63;1597565;89;21569;-66
2022/04/19 05:25:06;;;;;;;3.02;2.65;;;;;;;10.32;43.55;101153.31;1610687;89;21125;-66
2022/04/19 05:27:35;;;;;;;4.65;2.50;;;;;;;10.38;43.53;101151.92;1611233;89;21523;-66
2022/04/19 05:30:04;;;;;;;3.08;2.77;;;;;;;10.45;42.83;101136.61;1610973;89;21081;-66
2022/04/19 05:32:33;;;;;;;5.00;2.60;;;;;;;10.52;43.08;101143.46;1610947;89;21113;-66
2022/04/19 05:35:01;;;;;;;2.50;2.30;;;;;;;10.60;42.26;101146.80;1611096;89;21082;-66
2022/04/19 05:37:28;;;;;;;2.80;2.58;;;;;;;10.66;42.50;101146.70;1610877;89;21090;-66
2022/04/19 05:39:54;;;;;;;2.58;2.37;;;;;;;10.76;41.86;101146.13;1611259;89;21062;-66
2022/04/19 05:42:22;;;;;;;2.80;2.37;;;;;;;10.95;41.96;101147.09;1662152;85;21597;-66
2022/04/19 05:44:49;;;;;;;2.72;2.52;;;;;;;11.20;41.41;101156.20;1680813;85;21029;-66
2022/04/19 05:47:17;;;;;;;4.10;2.55;;;;;;;11.46;40.93;101151.36;1680338;85;21596;-65
2022/04/19 05:49:44;;;;;;;4.30;2.67;;;;;;;11.73;39.83;101155.20;1680482;85;21038;-66
2022/04/19 05:52:13;;;;;;;2.90;2.37;;;;;;;11.98;39.81;101152.95;1680463;85;21072;-65
2022/04/19 05:54:40;;;;;;;4.83;2.75;;;;;;;12.24;38.99;101155.41;1680449;85;21069;-65
2022/04/19 05:57:10;;;;;;;3.20;2.80;;;;;;;12.60;38.73;101149.80;1680764;85;21576;-66
2022/04/19 05:59:38;;;;;;;4.90;2.57;;;;;;;13.00;37.77;101163.59;1680803;85;21038;-66
2022/04/19 06:04:52;;;;;;;5.05;2.75;;;;;;;13.74;36.35;101152.95;1680430;85;21033;-65
2022/04/19 06:07:26;;;;;;;3.72;2.80;;;;;;;14.13;35.56;101154.41;1680662;85;21064;-65
2022/04/19 06:09:54;;;;;;;3.12;2.83;;;;;;;14.40;35.44;101148.81;1677530;84;21059;-66
2022/04/19 06:12:23;;;;;;;3.40;3.10;;;;;;;14.54;35.23;101146.61;1705211;84;21535;-66
2022/04/19 06:14:53;;;;;;;4.12;3.10;;;;;;;14.68;34.77;101139.16;1705269;83;21031;-66
2022/04/19 06:17:22;;;;;;;5.12;3.55;;;;;;;14.73;34.99;101132.47;1705303;84;22110;-66
2022/04/19 06:19:52;;;;;;;4.10;3.60;;;;;;;14.81;34.49;101144.87;1705225;84;21553;-66
2022/04/19 06:22:21;;;;;;;4.78;3.20;;;;;;;14.84;34.65;101141.68;1693058;84;21089;-65
2022/04/19 06:25:01;;;;;;;3.62;3.10;;;;;;;14.85;34.75;101137.31;1693182;84;21102;-66
2022/04/19 06:27:29;;;;;;;4.10;3.25;;;;;;;14.83;34.55;101144.36;1704928;83;21074;-65
2022/04/19 06:29:58;;;;;;;3.75;2.98;;;;;;;14.85;34.43;101147.34;1705184;84;21592;-66
2022/04/19 06:32:25;;;;;;;4.45;3.17;;;;;;;14.93;33.86;101151.01;1705199;84;21077;-65
2022/04/19 06:34:54;;;;;;;3.67;3.33;;;;;;;14.92;33.88;101148.83;1705280;84;21546;-66
2022/04/19 06:37:22;;;;;;;4.62;3.65;;;;;;;14.93;34.51;101151.01;1703743;84;21014;-66
2022/04/19 06:39:51;;;;;;;3.98;3.08;;;;;;;14.98;34.59;101151.72;1700920;84;21558;-65
2022/04/19 06:42:20;;;;;;;5.50;3.52;;;;;;;15.18;34.34;101144.03;1705090;84;21082;-66
2022/04/19 06:45:06;;;;;;;4.45;3.45;;;;;;;15.34;33.70;101150.01;1704941;84;21044;-67
2022/04/19 06:47:35;;;;;;;5.22;3.30;;;;;;;15.41;33.96;101151.97;1676839;84;21020;-67
2022/04/19 06:50:06;;;;;;;3.85;3.22;;;;;;;15.47;33.55;101154.41;1699148;84;21070;-67
2022/04/19 06:52:34;;;;;;;4.83;3.50;;;;;;;15.44;32.75;101159.74;1705201;84;21042;-65
2022/04/19 06:55:03;;;;;;;5.15;3.20;;;;;;;15.41;33.13;101154.59;1705227;82;21071;-65
2022/04/19 06:57:39;;;;;;;6.50;3.80;;;;;;;15.44;32.85;101150.56;1705144;84;21538;-66
2022/04/19 07:00:09;;;;;;;4.70;3.70;;;;;;;15.51;33.01;101153.83;1705009;84;21036;-65
2022/04/19 07:02:36;;;;;;;7.72;4.47;;;;;;;15.54;32.61;101158.50;1703156;84;21009;-67
2022/04/19 07:05:24;;;;;;;5.22;3.90;;;;;;;15.48;32.87;101150.85;1613479;88;21054;-66
2022/04/19 07:07:53;;;;;;;5.65;3.92;;;;;;;15.45;33.01;101149.67;1613706;87;21089;-67
2022/04/19 07:10:23;;;;;;;4.22;3.45;;;;;;;15.48;33.12;101150.85;1604684;87;21653;-66
2022/04/19 07:12:51;;;;;;;5.28;3.52;;;;;;;15.54;33.07;101149.80;1595359;89;21130;-64
2022/04/19 07:15:20;;;;;;;3.67;3.02;;;;;;;15.65;32.69;101152.43;1595382;89;21058;-65
2022/04/19 07:17:50;;;;;;;4.08;3.22;;;;;;;15.71;31.94;101148.27;1595485;89;21086;-65
2022/04/19 07:28:38;;;;;;;5.17;3.50;;;;;;;15.81;32.28;101146.16;1595827;89;21570;-66
2022/04/19 07:31:07;;;;;;;3.72;3.08;;;;;;;15.80;32.06;101144.01;1595442;89;21542;-67
2022/04/19 07:33:38;;;;;;;6.10;3.10;;;;;;;15.71;31.87;101144.34;1594692;89;21126;-63
2022/04/19 07:36:07;;;;;;;8.83;3.25;;;;;;;15.53;31.94;101143.69;1620950;85;21022;-66
2022/04/19 07:38:37;;;;;;;5.08;3.75;;;;;;;15.35;31.54;101140.38;1621180;87;21034;-66
2022/04/19 07:41:20;;;;;;;6.83;3.50;;;;;;;15.11;32.30;101137.28;1628634;87;21082;-67
2022/04/19 07:43:48;;;;;;;4.42;3.15;;;;;;;14.90;33.05;101138.86;1631176;87;21061;-66
2022/04/19 07:46:15;;;;;;;3.15;2.70;;;;;;;14.73;32.95;101138.58;1637043;87;21097;-66
2022/04/19 07:48:48;;;;;;;4.12;3.00;;;;;;;14.58;33.75;101125.52;1651041;86;21037;-66
2022/04/19 07:51:20;;;;;;;3.55;2.45;;;;;;;14.49;33.96;101134.97;1650036;86;21046;-64
2022/04/19 07:53:47;;;;;;;3.08;2.77;;;;;;;14.45;34.12;101132.48;1648488;86;21517;-65
2022/04/19 07:56:14;;;;;;;3.52;2.87;;;;;;;14.41;34.16;101133.05;1648335;86;21045;-64
2022/04/19 07:58:42;;;;;;;4.20;3.42;;;;;;;14.35;33.85;101135.86;1646129;86;21088;-63
2022/04/19 08:01:11;;;;;;;5.42;3.50;;;;;;;14.33;34.48;101129.81;1624444;87;21012;-65
2022/04/19 08:03:39;;;;;;;4.37;3.10;;;;;;;14.33;34.31;101133.73;1636590;87;21109;-63
2022/04/19 08:06:07;;;;;;;3.70;3.22;;;;;;;14.28;34.32;101123.85;1626140;87;21559;-65
2022/04/19 08:08:36;;;;;;;6.28;3.40;;;;;;;14.22;33.98;101130.55;1630115;87;21599;-65
2022/04/19 08:11:05;;;;;;;4.00;2.83;;;;;;;14.13;34.68;101132.16;1633585;86;21074;-66
2022/04/19 08:13:33;;;;;;;3.52;2.90;;;;;;;14.11;34.70;101124.81;1607852;88;21018;-66
2022/04/19 08:15:59;;;;;;;4.12;2.85;;;;;;;14.09;34.29;101116.59;1616358;88;21559;-65
2022/04/19 08:18:27;;;;;;;7.10;3.37;;;;;;;14.09;34.52;101123.13;1602015;88;21142;-65
2022/04/19 08:20:54;;;;;;;5.10;4.03;;;;;;;14.08;34.09;101118.34;1617757;88;21033;-65
2022/04/19 08:23:21;;;;;;;4.75;3.20;;;;;;;14.05;34.04;101113.66;1607020;88;21130;-66
2022/04/19 08:25:52;;;;;;;6.47;3.02;;;;;;;14.01;34.42;101123.38;1543431;91;21069;-65
2022/04/19 08:28:20;;;;;;;4.20;2.85;;;;;;;14.02;34.71;101121.59;1575336;89;21052;-64
2022/04/19 08:30:47;;;;;;;5.45;2.87;;;;;;;14.06;35.14;101120.15;1570970;90;21744;-67
2022/04/19 08:33:16;;;;;;;4.90;3.72;;;;;;;14.09;34.42;101121.38;1571865;90;21680;-65
2022/04/19 08:35:42;;;;;;;5.60;3.22;;;;;;;14.12;34.21;101113.42;1590812;88;21506;-66
2022/04/19 08:38:10;;;;;;;4.47;3.80;;;;;;;14.16;34.77;101115.04;1607887;88;21065;-66
2022/04/19 08:40:37;;;;;;;4.97;3.30;;;;;;;14.22;34.56;101114.84;1595137;88;21548;-65
2022/04/19 08:43:05;;;;;;;6.10;4.58;;;;;;;14.22;33.34;101120.08;1597381;88;21075;-66
2022/04/19 08:45:33;;;;;;;4.05;2.98;;;;;;;14.23;33.70;101120.50;1599090;88;21045;-65
2022/04/19 08:48:02;;;;;;;3.55;3.02;;;;;;;14.27;33.83;101118.20;1602239;88;21052;-65
2022/04/19 08:50:31;;;;;;;9.40;3.10;;;;;;;14.32;32.81;101116.30;1587199;88;21572;-66
2022/04/19 08:58:30;;;;;;;3.12;2.33;;;;;;;14.42;33.54;101128.23;1588698;89;21135;-66
2022/04/19 09:00:58;;;;;;;3.10;2.40;;;;;;;14.50;32.57;101120.98;1588945;89;21050;-66
2022/04/19 09:03:25;;;;;;;3.50;2.33;;;;;;;14.56;32.47;101117.30;1642838;84;21084;-64
2022/04/19 09:05:53;;;;;;;4.20;2.92;;;;;;;14.60;32.22;101122.40;1680850;84;21060;-65
2022/04/19 09:08:20;;;;;;;4.03;2.75;;;;;;;14.58;32.55;101120.28;1683003;84;21006;-65
2022/04/19 09:10:50;;;;;;;4.22;2.77;;;;;;;14.59;32.46;101118.05;1704447;82;21675;-64
2022/04/19 09:13:21;;;;;;;5.95;2.70;;;;;;;14.60;32.68;101114.55;1710881;82;21062;-65
2022/04/19 09:15:48;;;;;;;2.60;2.33;;;;;;;14.65;33.06;101109.99;1678354;85;21050;-65
2022/04/19 09:18:24;;;;;;;2.33;2.08;;;;;;;14.74;32.93;101115.84;1696597;83;21116;-65
2022/04/19 09:20:52;;;;;;;3.35;2.30;;;;;;;14.81;32.50;101114.73;1662510;85;21077;-66
2022/04/19 09:23:19;;;;;;;3.40;2.08;;;;;;;14.86;32.06;101118.08;1662219;85;21122;-66
2022/04/19 09:25:46;;;;;;;4.33;2.25;;;;;;;14.90;32.10;101112.66;1663120;85;21025;-63
2022/04/19 09:28:18;;;;;;;2.75;2.12;;;;;;;14.96;31.59;101112.92;1662211;85;21534;-63
2022/04/19 09:33:21;;;;;;;3.87;2.58;;;;;;;15.04;31.16;101120.07;1656400;86;21026;-66
2022/04/19 09:35:56;;;;;;;3.72;2.00;;;;;;;15.08;30.74;101124.30;1651580;86;21098;-66
2022/04/19 09:38:49;;;;;;;4.20;2.95;;;;;;;15.14;31.11;101126.70;1671506;85;21046;-65
2022/04/19 09:41:33;;;;;;;3.95;2.37;;;;;;;15.21;31.16;101127.73;1541354;92;21595;-63
2022/04/19 09:44:11;;;;;;;3.52;2.20;;;;;;;15.27;31.46;101128.00;1517764;93;21121;-65
2022/04/19 09:46:39;;;;;;;4.22;2.25;;;;;;;15.36;30.92;101126.34;1517197;94;21135;-64
2022/04/19 09:49:07;;;;;;;4.87;2.30;;;;;;;15.42;29.86;101128.75;1515917;93;21092;-65
2022/04/19 09:51:35;;;;;;;3.15;2.00;;;;;;;15.42;29.48;101123.09;1514309;94;21064;-65
2022/04/19 09:54:02;;;;;;;3.95;2.52;;;;;;;15.42;29.22;101122.19;1515680;94;21131;-64
2022/04/19 09:56:36;;;;;;;5.60;2.12;;;;;;;15.43;29.32;101124.78;1516451;93;21065;-65
2022/04/19 09:59:03;;;;;;;3.02;1.70;;;;;;;15.48;30.32;101132.50;1502725;94;21104;-65
2022/04/19 10:09:39;;;;;;;4.85;2.52;;;;;;;15.56;30.77;101126.52;1507632;94;21627;-66
2022/04/19 10:12:10;;;;;;;3.08;2.12;;;;;;;15.57;30.71;101124.31;1506211;95;21163;-65
2022/04/19 10:14:39;;;;;;;3.00;2.02;;;;;;;15.63;30.21;101120.59;1497533;95;21068;-65
2022/04/19 10:17:07;;;;;;;2.60;1.90;;;;;;;15.66;29.86;101126.58;1501917;94;21601;-65
2022/04/19 10:19:36;;;;;;;4.42;2.70;;;;;;;15.72;29.64;101120.27;1484423;95;21663;-64
2022/04/19 10:22:06;;;;;;;2.17;1.98;;;;;;;15.75;29.82;101118.83;1488549;96;21121;-65
2022/04/19 10:24:45;;;;;;;3.37;2.98;;;;;;;15.79;29.42;101109.48;1472490;96;21124;-66
2022/04/19 10:27:12;;;;;;;7.03;2.90;;;;;;;15.81;29.30;101118.15;1487276;96;21114;-64
2022/04/19 10:29:40;;;;;;;4.58;2.60;;;;;;;15.85;29.41;101116.26;1499368;94;21082;-64
2022/04/19 10:32:10;;;;;;;2.85;2.12;;;;;;;15.88;29.97;101107.84;1519807;94;21063;-66
2022/04/19 10:34:39;;;;;;;3.47;2.15;;;;;;;15.91;29.57;101113.44;1522070;94;21079;-66
2022/04/19 10:37:21;;;;;;;3.50;2.20;;;;;;;15.90;29.27;101098.59;1532240;88;21615;-65
2022/04/19 10:39:55;;;;;;;2.20;1.80;;;;;;;15.92;28.90;101104.18;1621505;88;21013;-64
2022/04/19 10:42:37;;;;;;;2.30;2.00;;;;;;;15.88;28.82;101103.91;1622049;88;21073;-65
2022/04/19 10:45:14;;;;;;;2.30;2.02;;;;;;;15.89;28.64;101102.14;1538611;92;21084;-65
2022/04/19 10:47:59;;;;;;;2.77;1.98;;;;;;;15.91;28.66;101105.08;1540182;92;21621;-65
2022/04/19 10:50:33;;;;;;;3.15;2.27;;;;;;;15.97;28.86;101106.16;1546294;91;21066;-66
2022/04/19 10:53:04;;;;;;;2.92;2.15;;;;;;;16.03;29.02;101097.22;1549569;91;21095;-65
2022/04/19 10:55:40;;;;;;;2.55;1.98;;;;;;;16.11;28.92;101088.13;1564573;88;21069;-62
2022/04/19 10:58:17;;;;;;;2.33;2.10;;;;;;;16.21;28.70;101078.97;1573764;90;21147;-65
2022/04/19 11:00:52;;;;;;;2.22;1.75;;;;;;;16.33;28.40;101078.06;1570383;90;21042;-65
2022/04/19 11:03:33;;;;;;;3.47;1.55;;;;;;;16.43;28.06;101083.34;1531186;92;21084;-66
2022/04/19 11:06:04;;;;;;;2.25;1.70;;;;;;;16.47;27.70;101077.05;1526663;92;21677;-66
2022/04/19 11:08:38;;;;;;;2.52;1.90;;;;;;;16.49;27.41;101084.41;1527517;92;21090;-64
2022/04/19 11:11:23;;;;;;;3.20;1.95;;;;;;;16.52;27.08;101080.39;1550496;91;21627;-66
2022/04/19 11:14:17;;;;;;;2.08;1.90;;;;;;;16.60;27.10;101083.55;1523778;93;21101;-65
2022/04/19 11:16:48;;;;;;;1.92;1.62;;;;;;;16.63;27.47;101071.13;1560152;91;21052;-66
2022/04/19 11:19:22;;;;;;;2.27;1.40;;;;;;;16.65;26.70;101075.03;1554199;91;21594;-65
2022/04/19 11:21:57;;;;;;;2.75;1.67;;;;;;;16.62;26.69;101071.20;1488980;95;21156;-65
2022/04/19 11:24:59;;;;;;;2.25;2.05;;;;;;;16.64;26.67;101070.69;1488944;95;21090;-66
2022/04/19 11:27:54;;;;;;;2.42;1.70;;;;;;;16.69;26.64;101062.16;1491500;95;21139;-65
2022/04/19 11:30:22;;;;;;;2.62;1.60;;;;;;;16.70;27.62;101058.60;1435341;98;21177;-65
2022/04/19 11:32:54;;;;;;;2.25;1.50;;;;;;;16.74;27.07;101058.87;1435517;98;21129;-66
2022/04/19 11:35:21;;;;;;;3.45;2.00;;;;;;;16.75;27.08;101056.20;1448156;97;21078;-66
2022/04/19 11:37:49;;;;;;;2.42;1.82;;;;;;;16.76;27.23;101048.69;1451836;97;21120;-67
2022/04/19 11:48:50;;;;;;;1.62;1.52;;;;;;;16.78;25.89;101043.36;1503981;94;21068;-66
2022/04/19 11:51:20;;;;;;;2.37;1.62;;;;;;;16.78;25.54;101036.80;1503382;94;21044;-65
2022/04/19 11:53:49;;;;;;;2.30;1.70;;;;;;;16.83;25.39;101044.03;1501897;94;21532;-65
2022/04/19 11:56:17;;;;;;;2.42;1.80;;;;;;;16.86;26.81;101042.12;1503856;94;21011;-65
2022/04/19 11:58:52;;;;;;;2.22;1.67;;;;;;;16.89;25.66;101039.38;1501132;94;21123;-65
2022/04/19 12:01:19;;;;;;;2.87;1.60;;;;;;;16.90;25.92;101037.58;1574931;90;21564;-65
2022/04/19 12:03:48;;;;;;;6.30;1.60;;;;;;;16.91;25.67;101039.30;1575934;90;21060;-66
2022/04/19 12:06:18;;;;;;;2.45;1.62;;;;;;;17.00;26.24;101038.91;1575359;91;21097;-66
2022/04/19 12:08:51;;;;;;;2.15;1.70;;;;;;;17.07;25.49;101033.31;1594305;89;21008;-65
2022/04/19 12:11:23;;;;;;;2.40;1.80;;;;;;;17.15;25.06;101027.70;1497320;95;21191;-65
2022/04/19 12:13:50;;;;;;;2.23;1.80;;;;;;;17.24;25.66;101018.10;1494338;95;21173;-62
2022/04/19 12:16:37;;;;;;;3.17;1.90;;;;;;;17.33;25.69;101015.52;1498473;95;21133;-63
2022/04/19 12:19:10;;;;;;;1.60;1.45;;;;;;;17.40;25.16;101007.27;1524984;92;21037;-63
2022/04/19 12:21:46;;;;;;;2.10;1.60;;;;;;;17.45;24.46;101005.75;1540323;92;21127;-61
2022/04/19 12:24:23;;;;;;;2.42;1.45;;;;;;;17.48;24.63;101000.34;1533333;93;21070;-62
2022/04/19 12:27:07;;;;;;;1.82;1.62;;;;;;;17.51;25.52;101001.56;1533134;93;21085;-63